FNHU/NOV METAR and TAF weather

Enter ICAO airport designator
Station Type Date Time Source
FNHU METAR 2019/04/19 16:00 UTC NOAA

FNHU 191600Z 17008KT 8000 VCSH FEW010 FEW030CB BKN070 20/17 Q1021


Station Type Date Time Source
FNHU Decoded METAR 2019/04/19 16:00 UTC NOAA

Huambo Nova Lisboa , Angola (FNHU) 12-48S 015-45E 1701M
Apr 19, 2019 - 12:00 PM EDT / 2019.04.19 1600 UTC
Wind: from the S (170 degrees) at 9 MPH (8 KT):0
Visibility: 4 mile(s):0
Sky conditions: mostly cloudy
Weather: showers in the vicinity; Cumulonimbus clouds observed
Temperature: 68 F (20 C)
Dew Point: 62 F (17 C)
Relative Humidity: 82%
Pressure (altimeter): 30.15 in. Hg (1021 hPa)
ob: FNHU 191600Z 17008KT 8000 VCSH FEW010 FEW030CB BKN070 20/17 Q1021
cycle: 16

Station Type Date Time Source
FNHU TAF 2019/04/19 12:03 UTC NOAA

TAF TAF FNHU 191100Z 1912/1924 05008KT 9999 SCT010
TEMPO 1913/1917 03004KT 6000 -TSRA BKN011 FEW030CB
BECMG 1919/1921 VRB02KT

Example: see airport list